Time;durP1;ratioP1;P1;durP2;ratioP2;P2;SDS_P1;SDS_P2;PMS_P1;PMS_P2;Temp;Humidity;BMP_temperature;BMP_pressure;BME280_temperature;BME280_humidity;BME280_pressure;Samples;Min_cycle;Max_cycle;Signal;HPM_P1;HPM_P2
2022/12/31 00:02:22;;;;;;;;;;;;;;;15.14;71.00;98800.22;5068784;28;19915;-41
2022/12/31 00:04:47;;;;;;;;;;;;;;;14.74;74.77;98771.25;5068125;28;19928;-41
2022/12/31 00:07:12;;;;;;;;;;;;;;;14.89;71.41;98785.16;5070356;28;19923;-41
2022/12/31 00:09:37;;;;;;;;;;;;;;;14.43;70.68;98778.00;5068830;28;19935;-41
2022/12/31 00:12:03;;;;;;;;;;;;;;;14.56;67.94;98815.34;5069709;28;20383;-41
2022/12/31 00:14:28;;;;;;;;;;;;;;;14.70;64.35;98831.94;5069394;28;20290;-41
2022/12/31 00:16:53;;;;;;;;;;;;;;;14.31;65.24;98820.06;5069102;28;19917;-41
2022/12/31 00:19:18;;;;;;;;;;;;;;;14.96;63.35;98844.41;5071608;28;20011;-41
2022/12/31 00:21:44;;;;;;;;;;;;;;;15.25;66.66;98829.03;5070006;28;19921;-41
2022/12/31 00:24:09;;;;;;;;;;;;;;;15.11;71.54;98790.03;5073287;28;19923;-41
2022/12/31 00:26:34;;;;;;;;;;;;;;;15.01;75.06;98767.19;5073561;28;19927;-41
2022/12/31 00:29:00;;;;;;;;;;;;;;;14.90;74.26;98768.69;5073004;28;19920;-41
2022/12/31 00:31:26;;;;;;;;;;;;;;;15.04;76.36;98755.81;5076301;28;20372;-41
2022/12/31 00:33:51;;;;;;;;;;;;;;;14.93;78.66;98748.59;5074575;28;20011;-41
2022/12/31 00:36:18;;;;;;;;;;;;;;;14.98;77.53;98744.00;5071530;28;20030;-41
2022/12/31 00:38:44;;;;;;;;;;;;;;;14.90;81.19;98722.03;5073671;28;19919;-41
2022/12/31 00:41:10;;;;;;;;;;;;;;;15.17;78.34;98732.66;5072534;28;19963;-41
2022/12/31 00:43:35;;;;;;;;;;;;;;;14.91;79.72;98716.72;5070876;28;20939;-41
2022/12/31 00:46:01;;;;;;;;;;;;;;;14.97;78.99;98734.56;5073419;28;19924;-41
2022/12/31 00:48:26;;;;;;;;;;;;;;;14.69;78.97;98731.75;5071693;28;19920;-41
2022/12/31 00:50:51;;;;;;;;;;;;;;;14.62;76.81;98752.00;5073485;28;20026;-41
2022/12/31 00:53:16;;;;;;;;;;;;;;;14.81;75.09;98767.41;5073461;28;19924;-41
2022/12/31 00:55:42;;;;;;;;;;;;;;;14.73;72.13;98764.38;5072650;28;19924;-41
2022/12/31 00:58:07;;;;;;;;;;;;;;;14.82;69.31;98790.69;5072431;28;19920;-41
2022/12/31 01:00:32;;;;;;;;;;;;;;;14.76;67.21;98814.31;5072194;28;19951;-41
2022/12/31 01:02:57;;;;;;;;;;;;;;;14.93;65.80;98823.81;5072794;28;20027;-41
2022/12/31 01:05:23;;;;;;;;;;;;;;;14.98;66.81;98821.78;5073003;28;19947;-41
2022/12/31 01:07:48;;;;;;;;;;;;;;;15.19;66.50;98825.03;5074274;28;19916;-41
2022/12/31 01:11:17;;;;;;;;;;;;;;;15.08;68.07;98811.78;5072269;28;19920;-41
2022/12/31 01:12:58;;;;;;;;;;;;;;;15.10;69.35;98803.91;5073859;28;19926;-41
2022/12/31 01:15:23;;;;;;;;;;;;;;;15.12;67.62;98807.25;5072586;28;19916;-41
2022/12/31 01:17:49;;;;;;;;;;;;;;;15.31;66.78;98820.94;5072705;28;19927;-41
2022/12/31 01:20:14;;;;;;;;;;;;;;;15.41;69.50;98793.53;5071007;28;19927;-41
2022/12/31 01:22:39;;;;;;;;;;;;;;;15.10;68.75;98788.34;5072134;28;20007;-41
2022/12/31 01:25:05;;;;;;;;;;;;;;;14.80;66.90;98789.91;5071454;28;19919;-41
2022/12/31 01:27:30;;;;;;;;;;;;;;;14.89;65.07;98811.91;5072772;28;19922;-41
2022/12/31 01:29:55;;;;;;;;;;;;;;;14.90;60.20;98829.16;5070893;28;19916;-41
2022/12/31 01:32:20;;;;;;;;;;;;;;;14.87;59.74;98834.50;5073731;28;19931;-41
2022/12/31 01:34:46;;;;;;;;;;;;;;;14.72;51.72;98856.03;5069811;28;20337;-41
2022/12/31 01:37:11;;;;;;;;;;;;;;;14.67;51.15;98858.03;5072649;28;19924;-41
2022/12/31 01:39:36;;;;;;;;;;;;;;;14.93;49.45;98888.63;5073486;28;20353;-41
2022/12/31 01:42:02;;;;;;;;;;;;;;;14.51;51.10;98863.97;5071508;28;20362;-41
2022/12/31 01:44:27;;;;;;;;;;;;;;;15.25;46.50;98912.06;5071813;28;19943;-41
2022/12/31 01:46:53;;;;;;;;;;;;;;;14.56;53.67;98855.97;5069719;28;20865;-41
2022/12/31 01:49:36;;;;;;;;;;;;;;;14.75;50.20;98876.59;5072432;28;19927;-41
2022/12/31 01:52:02;;;;;;;;;;;;;;;14.83;47.76;98888.28;5071427;28;19975;-41
2022/12/31 01:54:27;;;;;;;;;;;;;;;14.60;48.62;98884.25;5069826;28;20477;-41
2022/12/31 01:56:53;;;;;;;;;;;;;;;14.76;47.65;98904.22;5071153;28;19925;-41
2022/12/31 01:59:18;;;;;;;;;;;;;;;14.87;47.65;98904.53;5067889;28;20500;-41
2022/12/31 02:01:45;;;;;;;;;;;;;;;14.83;46.91;98905.59;5072085;28;19917;-41
2022/12/31 02:04:11;;;;;;;;;;;;;;;14.90;46.45;98912.13;5071422;28;19924;-41
2022/12/31 02:06:40;;;;;;;;;;;;;;;15.08;46.12;98919.91;5071490;28;19966;-41
2022/12/31 02:09:06;;;;;;;;;;;;;;;14.86;49.12;98900.22;5068520;28;19927;-41
2022/12/31 02:11:34;;;;;;;;;;;;;;;14.83;47.92;98903.81;5068781;28;19924;-41
2022/12/31 02:14:00;;;;;;;;;;;;;;;15.01;47.62;98909.00;5071508;28;19930;-41
2022/12/31 02:16:29;;;;;;;;;;;;;;;14.92;46.58;98914.66;5071400;28;19916;-41
2022/12/31 02:19:30;;;;;;;;;;;;;;;15.25;46.94;98927.63;5069372;28;19924;-41
2022/12/31 02:22:15;;;;;;;;;;;;;;;15.08;47.52;98914.72;5015520;28;20436;-41
2022/12/31 02:24:46;;;;;;;;;;;;;;;15.17;47.94;98909.03;5054322;28;19927;-41
2022/12/31 02:27:14;;;;;;;;;;;;;;;14.89;48.09;98915.63;5072073;28;19951;-41
2022/12/31 02:29:50;;;;;;;;;;;;;;;15.07;47.44;98929.41;5068159;28;19920;-41
2022/12/31 02:32:16;;;;;;;;;;;;;;;14.83;45.95;98916.78;5071644;28;19920;-41
2022/12/31 02:35:11;;;;;;;;;;;;;;;15.03;44.65;98928.75;5069757;28;19920;-41
2022/12/31 02:37:37;;;;;;;;;;;;;;;14.86;45.30;98926.16;5059405;28;19920;-41
2022/12/31 02:40:03;;;;;;;;;;;;;;;15.06;44.24;98949.31;5071370;28;19989;-41
2022/12/31 02:42:28;;;;;;;;;;;;;;;14.63;47.36;98937.69;5065911;28;20393;-41
2022/12/31 02:44:53;;;;;;;;;;;;;;;14.96;45.94;98973.19;5069982;28;19926;-41
2022/12/31 02:47:43;;;;;;;;;;;;;;;15.28;45.50;98989.75;5069848;28;19951;-41
2022/12/31 02:50:20;;;;;;;;;;;;;;;14.91;48.22;98955.28;5070027;28;20488;-41
2022/12/31 02:52:48;;;;;;;;;;;;;;;15.04;46.60;98956.34;5067548;28;19924;-41
2022/12/31 02:55:32;;;;;;;;;;;;;;;15.18;47.39;98967.78;5068746;28;19921;-41
2022/12/31 02:58:20;;;;;;;;;;;;;;;15.20;48.26;98950.38;5070681;28;19920;-41
2022/12/31 03:03:31;;;;;;;;;;;;;;;15.12;51.17;98926.56;5069508;28;20005;-41
2022/12/31 03:05:56;;;;;;;;;;;;;;;15.40;48.01;98942.38;5069659;28;19958;-41
2022/12/31 03:08:22;;;;;;;;;;;;;;;15.38;50.66;98918.28;5069397;28;20012;-41
2022/12/31 03:10:47;;;;;;;;;;;;;;;15.65;52.14;98912.53;5070524;28;19931;-41
2022/12/31 03:13:13;;;;;;;;;;;;;;;15.45;51.97;98904.06;5070218;28;19920;-41
2022/12/31 03:15:38;;;;;;;;;;;;;;;15.26;51.57;98886.03;5070538;28;20394;-41
2022/12/31 03:18:05;;;;;;;;;;;;;;;15.13;52.65;98881.56;5069369;28;20341;-41
2022/12/31 03:23:19;;;;;;;;;;;;;;;15.59;50.93;98894.69;5070242;28;20347;-41
2022/12/31 03:25:44;;;;;;;;;;;;;;;15.71;50.06;98927.78;5069576;28;19927;-41
2022/12/31 03:28:16;;;;;;;;;;;;;;;15.79;50.01;98907.44;5069036;28;19923;-41
2022/12/31 03:30:42;;;;;;;;;;;;;;;15.74;52.90;98901.69;5071323;28;19931;-41
2022/12/31 03:33:08;;;;;;;;;;;;;;;15.56;53.57;98906.06;5072597;28;20018;-41
2022/12/31 03:35:34;;;;;;;;;;;;;;;15.94;52.44;98902.31;5060896;28;20369;-41
2022/12/31 03:37:59;;;;;;;;;;;;;;;15.44;54.40;98889.41;5069852;28;20531;-41
2022/12/31 03:40:25;;;;;;;;;;;;;;;15.57;53.42;98906.91;5068674;28;19928;-41
2022/12/31 03:42:50;;;;;;;;;;;;;;;15.73;52.19;98906.94;5067788;28;20038;-40
2022/12/31 03:45:15;;;;;;;;;;;;;;;15.53;50.08;98915.78;5071427;28;20024;-41
2022/12/31 03:47:41;;;;;;;;;;;;;;;15.46;51.09;98931.69;5070560;28;20327;-41
2022/12/31 03:50:07;;;;;;;;;;;;;;;15.68;51.36;98925.34;5068558;28;19916;-41
2022/12/31 03:52:32;;;;;;;;;;;;;;;15.44;49.13;98930.94;5066720;28;19962;-42
2022/12/31 03:54:57;;;;;;;;;;;;;;;15.83;47.88;98960.91;5070989;28;19962;-41
2022/12/31 03:57:23;;;;;;;;;;;;;;;15.61;49.35;98944.75;5068934;28;20059;-41
2022/12/31 03:59:48;;;;;;;;;;;;;;;15.83;48.55;98976.47;5073041;28;19920;-41
2022/12/31 04:02:13;;;;;;;;;;;;;;;15.76;46.50;98984.66;5073111;28;20727;-41
2022/12/31 04:04:38;;;;;;;;;;;;;;;15.78;49.17;98981.09;5073645;28;19916;-41
2022/12/31 04:07:04;;;;;;;;;;;;;;;15.80;48.76;98984.41;5073505;28;19920;-42
2022/12/31 04:09:29;;;;;;;;;;;;;;;15.92;48.65;98982.94;5071987;28;19916;-42
2022/12/31 04:11:54;;;;;;;;;;;;;;;15.48;50.10;98975.72;5072268;28;19916;-42
2022/12/31 04:14:19;;;;;;;;;;;;;;;15.59;46.10;99009.72;5074295;28;20369;-42
2022/12/31 04:16:44;;;;;;;;;;;;;;;15.99;45.27;99038.00;5075154;28;21079;-42
2022/12/31 04:19:10;;;;;;;;;;;;;;;15.65;48.42;99003.41;5074001;28;19920;-42
2022/12/31 04:21:35;;;;;;;;;;;;;;;15.65;47.84;99013.78;5074645;28;19962;-42
2022/12/31 04:24:01;;;;;;;;;;;;;;;15.80;47.45;99014.75;5074066;28;19921;-42
2022/12/31 04:26:26;;;;;;;;;;;;;;;15.88;46.25;99021.22;5074728;28;19926;-42
2022/12/31 04:28:52;;;;;;;;;;;;;;;15.72;46.62;99014.31;5073324;28;20487;-42
2022/12/31 04:31:17;;;;;;;;;;;;;;;15.62;47.33;99021.72;5073598;28;20308;-42
2022/12/31 04:33:42;;;;;;;;;;;;;;;15.64;47.51;99022.47;5072040;28;19920;-42
2022/12/31 04:36:07;;;;;;;;;;;;;;;15.59;48.05;99008.91;5072614;28;20869;-42
2022/12/31 04:38:33;;;;;;;;;;;;;;;15.92;46.65;99021.03;5070961;28;20449;-42
2022/12/31 04:41:17;;;;;;;;;;;;;;;15.63;46.41;99031.19;5073187;28;19922;-42
2022/12/31 04:43:43;;;;;;;;;;;;;;;15.94;46.58;99039.97;5071807;28;19924;-42
2022/12/31 04:46:08;;;;;;;;;;;;;;;15.86;46.42;99053.38;5073219;28;20572;-42
2022/12/31 04:48:33;;;;;;;;;;;;;;;16.01;45.42;99059.50;5070658;28;19978;-42
2022/12/31 04:50:58;;;;;;;;;;;;;;;15.81;46.87;99029.41;5071139;28;19931;-42
2022/12/31 04:53:24;;;;;;;;;;;;;;;15.96;46.10;99043.34;5072732;28;19920;-42
2022/12/31 04:55:49;;;;;;;;;;;;;;;15.84;46.08;99037.03;5071048;28;19960;-42
2022/12/31 04:58:14;;;;;;;;;;;;;;;15.71;47.26;99029.03;5072646;28;19921;-41
2022/12/31 05:00:39;;;;;;;;;;;;;;;15.83;46.14;99044.00;5072246;28;19967;-42
2022/12/31 05:03:05;;;;;;;;;;;;;;;16.03;46.91;99057.66;5073699;28;19927;-42
2022/12/31 05:05:30;;;;;;;;;;;;;;;15.54;49.11;99001.34;5072937;28;19950;-42
2022/12/31 05:07:55;;;;;;;;;;;;;;;15.61;45.64;99064.19;5068938;28;19920;-42
2022/12/31 05:10:20;;;;;;;;;;;;;;;15.72;44.93;99100.00;5072438;28;19920;-42
2022/12/31 05:12:46;;;;;;;;;;;;;;;15.86;45.15;99115.72;5073432;28;19920;-42
2022/12/31 05:15:11;;;;;;;;;;;;;;;15.62;47.51;99112.56;5070537;28;19924;-42
2022/12/31 05:17:36;;;;;;;;;;;;;;;15.89;47.99;99131.94;5072548;28;19938;-42
2022/12/31 05:20:01;;;;;;;;;;;;;;;15.73;49.10;99115.50;5071414;28;19924;-42
2022/12/31 05:22:29;;;;;;;;;;;;;;;15.82;48.46;99115.00;5072107;28;20400;-42
2022/12/31 05:24:58;;;;;;;;;;;;;;;15.66;50.09;99114.09;5072824;28;19920;-43
2022/12/31 05:27:24;;;;;;;;;;;;;;;15.89;48.97;99120.72;5069381;28;19916;-42
2022/12/31 05:29:49;;;;;;;;;;;;;;;15.69;49.41;99083.63;5071778;28;19920;-42
2022/12/31 05:32:14;;;;;;;;;;;;;;;15.86;49.02;99100.13;5073587;28;19925;-42
2022/12/31 05:34:39;;;;;;;;;;;;;;;15.90;48.60;99101.66;5074323;28;20007;-42
2022/12/31 05:37:04;;;;;;;;;;;;;;;15.98;47.67;99109.88;5072503;28;19948;-42
2022/12/31 05:39:30;;;;;;;;;;;;;;;15.92;48.61;99071.25;5071891;28;19968;-42
2022/12/31 05:41:55;;;;;;;;;;;;;;;15.85;49.94;99070.72;5063265;28;19924;-42
2022/12/31 05:44:20;;;;;;;;;;;;;;;16.05;47.60;99079.22;5070754;28;19969;-42
2022/12/31 05:46:48;;;;;;;;;;;;;;;15.94;48.68;99068.53;5072254;28;19919;-42
2022/12/31 05:49:13;;;;;;;;;;;;;;;15.93;48.99;99051.31;5071732;28;19916;-42
2022/12/31 05:51:39;;;;;;;;;;;;;;;15.62;49.82;99021.72;5068334;28;20557;-42
2022/12/31 05:54:04;;;;;;;;;;;;;;;16.11;47.76;99055.50;5070846;28;20388;-42
2022/12/31 05:56:29;;;;;;;;;;;;;;;15.68;49.54;99016.19;5073798;28;19947;-42
2022/12/31 05:58:55;;;;;;;;;;;;;;;16.09;48.42;99044.34;5070057;28;19920;-42
2022/12/31 06:01:20;;;;;;;;;;;;;;;16.22;48.98;99024.59;5070875;28;20010;-42
2022/12/31 06:03:45;;;;;;;;;;;;;;;16.19;50.46;99010.91;5071538;28;20010;-42
2022/12/31 06:06:10;;;;;;;;;;;;;;;16.18;52.40;98983.25;5071186;28;19967;-42
2022/12/31 06:08:36;;;;;;;;;;;;;;;16.32;52.47;98970.34;5069217;28;19924;-42
2022/12/31 06:11:01;;;;;;;;;;;;;;;16.20;52.78;98963.25;5071451;28;19967;-42
2022/12/31 06:13:26;;;;;;;;;;;;;;;15.91;54.63;98947.47;5070963;28;19920;-42
2022/12/31 06:15:51;;;;;;;;;;;;;;;16.30;53.95;98970.41;5072475;28;19931;-42
2022/12/31 06:18:17;;;;;;;;;;;;;;;16.20;55.77;98938.09;5071885;28;19916;-42
2022/12/31 06:20:42;;;;;;;;;;;;;;;16.43;56.58;98935.94;5068798;28;19928;-42
2022/12/31 06:23:07;;;;;;;;;;;;;;;16.34;59.96;98903.53;5070377;28;19916;-42
2022/12/31 06:25:35;;;;;;;;;;;;;;;16.46;63.56;98874.22;5071146;28;19916;-42
2022/12/31 06:28:01;;;;;;;;;;;;;;;16.57;66.54;98850.19;5071113;28;20022;-42
2022/12/31 06:30:26;;;;;;;;;;;;;;;16.87;68.03;98851.94;5069488;28;20029;-42
2022/12/31 06:32:52;;;;;;;;;;;;;;;16.85;72.07;98828.59;5069928;28;19920;-42
2022/12/31 06:35:17;;;;;;;;;;;;;;;16.76;75.41;98781.47;5068239;28;19932;-42
2022/12/31 06:37:42;;;;;;;;;;;;;;;16.83;77.69;98762.00;5070531;28;19917;-42
2022/12/31 06:40:08;;;;;;;;;;;;;;;17.01;79.49;98784.28;5074057;28;19920;-42
2022/12/31 06:42:33;;;;;;;;;;;;;;;16.71;85.13;98738.38;5070891;28;20389;-42
2022/12/31 06:44:58;;;;;;;;;;;;;;;16.67;85.89;98742.13;5070208;28;19920;-42
2022/12/31 06:47:23;;;;;;;;;;;;;;;16.70;87.42;98728.09;5070882;28;20582;-42
2022/12/31 06:49:49;;;;;;;;;;;;;;;16.46;88.11;98720.84;5070330;28;19920;-42
2022/12/31 06:52:14;;;;;;;;;;;;;;;16.91;86.65;98744.16;5070752;28;20526;-42
2022/12/31 06:54:39;;;;;;;;;;;;;;;16.81;89.20;98722.25;5071478;28;20300;-42
2022/12/31 06:57:05;;;;;;;;;;;;;;;17.11;90.93;98733.34;5071269;28;20411;-42
2022/12/31 06:59:30;;;;;;;;;;;;;;;17.02;94.30;98705.31;5070921;28;20290;-42
2022/12/31 07:02:14;;;;;;;;;;;;;;;16.90;96.26;98709.53;5070257;28;19973;-42
2022/12/31 07:04:57;;;;;;;;;;;;;;;16.76;97.64;98700.88;5070564;28;19916;-42
2022/12/31 07:07:35;;;;;;;;;;;;;;;17.03;98.71;98706.97;5069902;28;20860;-42
2022/12/31 07:10:18;;;;;;;;;;;;;;;17.11;100.00;98689.13;5072710;28;19919;-42
2022/12/31 07:12:54;;;;;;;;;;;;;;;17.23;100.00;98674.47;5070834;28;20424;-42
2022/12/31 07:15:40;;;;;;;;;;;;;;;17.26;100.00;98647.41;5069728;28;19966;-42
2022/12/31 07:18:09;;;;;;;;;;;;;;;17.20;100.00;98643.47;5070886;28;19921;-42
2022/12/31 07:20:34;;;;;;;;;;;;;;;17.04;100.00;98632.38;5069225;28;19963;-42
2022/12/31 07:23:00;;;;;;;;;;;;;;;17.40;100.00;98623.91;5068415;28;20023;-42
2022/12/31 07:25:25;;;;;;;;;;;;;;;17.40;100.00;98628.28;5070102;28;19917;-42
2022/12/31 07:28:09;;;;;;;;;;;;;;;17.41;100.00;98609.97;5070627;28;19943;-42
2022/12/31 07:30:37;;;;;;;;;;;;;;;17.49;100.00;98579.06;5070614;28;19985;-42
2022/12/31 07:33:12;;;;;;;;;;;;;;;17.39;100.00;98577.19;5067353;28;19920;-42
2022/12/31 07:35:55;;;;;;;;;;;;;;;18.09;100.00;98566.38;5069842;28;19920;-45
2022/12/31 07:38:36;;;;;;;;;;;;;;;17.91;100.00;98525.00;5071177;28;19928;-44
2022/12/31 07:41:01;;;;;;;;;;;;;;;17.59;100.00;98534.19;5071015;28;19991;-45
2022/12/31 07:43:38;;;;;;;;;;;;;;;17.48;100.00;98542.72;5069386;28;20010;-45
2022/12/31 07:46:07;;;;;;;;;;;;;;;17.58;100.00;98535.13;5069954;28;19916;-44
2022/12/31 07:48:32;;;;;;;;;;;;;;;17.40;100.00;98524.16;5068013;28;19923;-44
2022/12/31 07:50:57;;;;;;;;;;;;;;;17.65;100.00;98545.03;5068574;28;19924;-44
2022/12/31 07:53:23;;;;;;;;;;;;;;;17.68;100.00;98537.00;5070591;28;20027;-44
2022/12/31 07:55:51;;;;;;;;;;;;;;;17.72;100.00;98514.16;5064107;28;19916;-44
2022/12/31 07:58:34;;;;;;;;;;;;;;;17.89;100.00;98526.88;5067765;28;19974;-42
2022/12/31 08:01:00;;;;;;;;;;;;;;;17.65;100.00;98507.72;5069308;28;19921;-42
2022/12/31 08:03:40;;;;;;;;;;;;;;;18.06;100.00;98517.06;5069474;28;19928;-42
2022/12/31 08:06:11;;;;;;;;;;;;;;;17.47;100.00;98509.81;5066829;28;19923;-42
2022/12/31 08:08:52;;;;;;;;;;;;;;;17.69;100.00;98496.16;5066746;28;19924;-42
2022/12/31 08:11:36;;;;;;;;;;;;;;;17.78;100.00;98535.41;5066134;28;19955;-42
2022/12/31 08:14:02;;;;;;;;;;;;;;;17.86;100.00;98531.47;5067465;28;19932;-42
2022/12/31 08:16:27;;;;;;;;;;;;;;;17.70;100.00;98539.50;5068025;28;20270;-42
2022/12/31 08:18:53;;;;;;;;;;;;;;;18.28;100.00;98506.78;5069324;28;19931;-42
2022/12/31 08:21:33;;;;;;;;;;;;;;;17.32;100.00;98511.69;5068984;28;20015;-42
2022/12/31 08:24:11;;;;;;;;;;;;;;;17.34;100.00;98554.91;5068104;28;20552;-42
2022/12/31 08:26:40;;;;;;;;;;;;;;;17.18;100.00;98569.88;5067237;28;20057;-42
2022/12/31 08:29:27;;;;;;;;;;;;;;;17.26;100.00;98591.00;5065790;28;19959;-42
2022/12/31 08:31:52;;;;;;;;;;;;;;;17.58;100.00;98587.19;5068909;28;19973;-42
2022/12/31 08:34:23;;;;;;;;;;;;;;;17.21;100.00;98589.63;5067451;28;19920;-42
2022/12/31 08:36:55;;;;;;;;;;;;;;;17.67;100.00;98596.97;5068146;28;20361;-42
2022/12/31 08:39:29;;;;;;;;;;;;;;;17.51;100.00;98603.22;5068657;28;19995;-42
2022/12/31 08:41:55;;;;;;;;;;;;;;;17.00;100.00;98590.09;5067875;28;19920;-42
2022/12/31 08:44:23;;;;;;;;;;;;;;;17.74;100.00;98608.66;5070232;28;19952;-41
2022/12/31 08:46:50;;;;;;;;;;;;;;;17.66;100.00;98590.13;5072582;28;19978;-42
2022/12/31 08:49:15;;;;;;;;;;;;;;;17.33;100.00;98591.41;5062322;28;20335;-42
2022/12/31 08:51:41;;;;;;;;;;;;;;;17.98;100.00;98599.19;5071286;28;19924;-42
2022/12/31 08:54:09;;;;;;;;;;;;;;;17.78;100.00;98577.06;5072124;28;19919;-42
2022/12/31 08:56:45;;;;;;;;;;;;;;;17.78;100.00;98560.63;5073453;28;19981;-42
2022/12/31 08:59:22;;;;;;;;;;;;;;;18.14;100.00;98552.06;5071355;28;19927;-42
2022/12/31 09:01:53;;;;;;;;;;;;;;;17.71;100.00;98538.56;5073482;28;20022;-42
2022/12/31 09:04:21;;;;;;;;;;;;;;;17.83;100.00;98535.13;5071987;28;19920;-42
2022/12/31 09:06:48;;;;;;;;;;;;;;;18.03;100.00;98520.72;5072806;28;20013;-42
2022/12/31 09:09:26;;;;;;;;;;;;;;;17.98;100.00;98517.59;5070133;28;19916;-42
2022/12/31 09:11:58;;;;;;;;;;;;;;;18.27;100.00;98520.75;5069697;28;20550;-42
2022/12/31 09:14:32;;;;;;;;;;;;;;;18.29;100.00;98505.84;5072707;28;19927;-42
2022/12/31 09:17:06;;;;;;;;;;;;;;;18.16;100.00;98481.59;5071731;28;19957;-42
2022/12/31 09:19:31;;;;;;;;;;;;;;;17.88;100.00;98508.75;5064055;28;19912;-42
2022/12/31 09:21:57;;;;;;;;;;;;;;;18.29;100.00;98521.50;5070663;28;19920;-42
2022/12/31 09:24:22;;;;;;;;;;;;;;;18.08;100.00;98489.94;5072279;28;19942;-42
2022/12/31 09:27:00;;;;;;;;;;;;;;;18.12;100.00;98495.78;5073579;28;19928;-42
2022/12/31 09:29:34;;;;;;;;;;;;;;;18.00;100.00;98517.50;5068156;28;19943;-42
2022/12/31 09:32:15;;;;;;;;;;;;;;;18.20;100.00;98535.19;5068215;28;19946;-42
2022/12/31 09:34:42;;;;;;;;;;;;;;;18.11;100.00;98535.78;5072818;28;19926;-42
2022/12/31 09:37:17;;;;;;;;;;;;;;;18.30;100.00;98557.03;5070093;28;19931;-42
2022/12/31 09:39:43;;;;;;;;;;;;;;;18.28;100.00;98552.88;5069343;28;19924;-42
2022/12/31 09:42:17;;;;;;;;;;;;;;;18.10;100.00;98562.81;5067865;28;19931;-42
2022/12/31 09:45:01;;;;;;;;;;;;;;;18.47;100.00;98557.59;5069493;28;19924;-42
2022/12/31 09:47:32;;;;;;;;;;;;;;;18.33;100.00;98548.97;5071448;28;19924;-40
2022/12/31 09:50:14;;;;;;;;;;;;;;;17.94;100.00;98568.25;5069541;28;20230;-41
2022/12/31 09:52:50;;;;;;;;;;;;;;;18.23;100.00;98587.06;5072662;28;19928;-41
2022/12/31 09:55:16;;;;;;;;;;;;;;;17.89;100.00;98573.78;5070321;28;19927;-41
2022/12/31 09:57:41;;;;;;;;;;;;;;;18.10;100.00;98607.09;5070660;28;19924;-41
2022/12/31 10:00:25;;;;;;;;;;;;;;;18.17;100.00;98624.81;5072114;28;19916;-41
2022/12/31 10:02:57;;;;;;;;;;;;;;;17.91;100.00;98647.44;5073006;28;19921;-41
2022/12/31 10:05:33;;;;;;;;;;;;;;;17.85;100.00;98660.06;5070854;28;19920;-40
2022/12/31 10:08:01;;;;;;;;;;;;;;;17.70;100.00;98686.16;5070444;28;19920;-41
2022/12/31 10:10:33;;;;;;;;;;;;;;;18.01;100.00;98696.34;5067293;28;19925;-41
2022/12/31 10:13:02;;;;;;;;;;;;;;;17.87;100.00;98716.31;5069798;28;19928;-42
2022/12/31 10:15:27;;;;;;;;;;;;;;;17.90;100.00;98721.34;5072488;28;19922;-41
2022/12/31 10:17:58;;;;;;;;;;;;;;;17.66;100.00;98733.34;5071774;28;20011;-41
2022/12/31 10:20:35;;;;;;;;;;;;;;;17.64;100.00;98756.06;5071669;28;19970;-41
2022/12/31 10:23:00;;;;;;;;;;;;;;;17.50;100.00;98764.75;5068413;28;19923;-41
2022/12/31 10:25:30;;;;;;;;;;;;;;;17.43;100.00;98755.66;5068152;28;19920;-40
2022/12/31 10:28:10;;;;;;;;;;;;;;;17.64;100.00;98771.66;5069770;28;20771;-41
2022/12/31 10:30:35;;;;;;;;;;;;;;;17.63;100.00;98776.06;5066547;28;19927;-41
2022/12/31 10:33:20;;;;;;;;;;;;;;;17.49;100.00;98783.91;5068556;28;19924;-41
2022/12/31 10:35:48;;;;;;;;;;;;;;;17.92;100.00;98802.81;5068204;28;19927;-41
2022/12/31 10:38:23;;;;;;;;;;;;;;;17.53;100.00;98774.97;5068989;28;20454;-41
2022/12/31 10:41:00;;;;;;;;;;;;;;;17.53;100.00;98770.56;5067507;28;20023;-41
2022/12/31 10:43:28;;;;;;;;;;;;;;;17.94;100.00;98777.50;5070564;28;19916;-41
2022/12/31 10:46:04;;;;;;;;;;;;;;;18.28;100.00;98757.00;5068524;28;19927;-41
2022/12/31 10:48:48;;;;;;;;;;;;;;;17.87;100.00;98713.72;5068177;28;20369;-41
2022/12/31 10:51:32;;;;;;;;;;;;;;;17.94;100.00;98722.78;5071279;28;20442;-41
2022/12/31 10:54:02;;;;;;;;;;;;;;;17.98;100.00;98703.41;5069357;28;21359;-41
2022/12/31 10:56:33;;;;;;;;;;;;;;;18.16;100.00;98697.91;5075851;28;19920;-41
2022/12/31 10:59:07;;;;;;;;;;;;;;;18.20;100.00;98683.72;5069609;28;20396;-41
2022/12/31 11:01:36;;;;;;;;;;;;;;;18.34;100.00;98673.19;5069661;28;20293;-41
2022/12/31 11:04:02;;;;;;;;;;;;;;;18.69;100.00;98659.44;5071131;28;19943;-41
2022/12/31 11:06:45;;;;;;;;;;;;;;;18.97;100.00;98637.44;5069556;28;19920;-41
2022/12/31 11:09:29;;;;;;;;;;;;;;;18.34;100.00;98586.31;5070346;28;20136;-41
2022/12/31 11:12:01;;;;;;;;;;;;;;;18.62;100.00;98585.19;5069719;28;19924;-41
2022/12/31 11:14:34;;;;;;;;;;;;;;;18.46;100.00;98582.00;5069804;28;19916;-41
2022/12/31 11:16:59;;;;;;;;;;;;;;;19.01;100.00;98580.66;5070650;28;19999;-41
2022/12/31 11:19:40;;;;;;;;;;;;;;;18.62;100.00;98577.38;5065989;28;19922;-41
2022/12/31 11:22:06;;;;;;;;;;;;;;;18.22;100.00;98528.06;5063579;28;19927;-41
2022/12/31 11:24:31;;;;;;;;;;;;;;;18.79;100.00;98543.09;5068300;28;19923;-41
2022/12/31 11:26:56;;;;;;;;;;;;;;;18.81;100.00;98530.75;5067889;28;19994;-41
2022/12/31 11:29:28;;;;;;;;;;;;;;;18.61;100.00;98520.94;5063887;28;20417;-41
2022/12/31 11:32:11;;;;;;;;;;;;;;;18.15;100.00;98532.03;5066394;28;20069;-41
2022/12/31 11:34:37;;;;;;;;;;;;;;;19.00;100.00;98519.00;5067853;28;20034;-41
2022/12/31 11:37:20;;;;;;;;;;;;;;;18.74;100.00;98506.03;5068118;28;19916;-41
2022/12/31 11:39:48;;;;;;;;;;;;;;;18.58;100.00;98490.69;5068960;28;19931;-41
2022/12/31 11:42:20;;;;;;;;;;;;;;;18.89;100.00;98470.19;5069233;28;20000;-41
2022/12/31 11:44:57;;;;;;;;;;;;;;;18.89;100.00;98488.47;5068285;28;20401;-41
2022/12/31 11:47:41;;;;;;;;;;;;;;;18.49;100.00;98477.50;5066273;28;19924;-41
2022/12/31 11:50:26;;;;;;;;;;;;;;;18.73;100.00;98483.53;5068081;28;19962;-41
2022/12/31 11:53:22;;;;;;;;;;;;;;;17.91;100.00;98483.31;5069398;28;19951;-41
2022/12/31 11:55:47;;;;;;;;;;;;;;;19.00;100.00;98516.38;5067530;28;20015;-41
2022/12/31 11:58:14;;;;;;;;;;;;;;;19.27;100.00;98494.34;5065901;28;19920;-41
2022/12/31 12:00:40;;;;;;;;;;;;;;;19.79;100.00;98464.25;5067940;28;20013;-40
2022/12/31 12:03:05;;;;;;;;;;;;;;;18.90;100.00;98426.66;5067773;28;19920;-41
2022/12/31 12:05:31;;;;;;;;;;;;;;;19.32;100.00;98440.03;5066985;28;21066;-41
2022/12/31 12:07:56;;;;;;;;;;;;;;;19.40;100.00;98443.69;5069113;28;19924;-41
2022/12/31 12:10:26;;;;;;;;;;;;;;;19.30;100.00;98447.13;5064238;28;20385;-41
2022/12/31 12:12:52;;;;;;;;;;;;;;;19.06;100.00;98435.00;5067007;28;20718;-41
2022/12/31 12:15:22;;;;;;;;;;;;;;;19.28;100.00;98443.81;5068528;28;19920;-40
2022/12/31 12:17:48;;;;;;;;;;;;;;;18.42;100.00;98429.34;5065123;28;19920;-41
2022/12/31 12:20:15;;;;;;;;;;;;;;;19.35;100.00;98451.03;5069128;28;19974;-41
2022/12/31 12:22:47;;;;;;;;;;;;;;;19.39;100.00;98431.59;5069730;28;20028;-41
2022/12/31 12:25:16;;;;;;;;;;;;;;;18.94;100.00;98446.38;5069225;28;20487;-40
2022/12/31 12:27:42;;;;;;;;;;;;;;;19.40;100.00;98437.63;5070879;28;20038;-41
2022/12/31 12:30:13;;;;;;;;;;;;;;;18.70;100.00;98439.41;5058475;28;20024;-41
2022/12/31 12:32:39;;;;;;;;;;;;;;;18.62;100.00;98478.25;5068610;28;19920;-41
2022/12/31 12:35:15;;;;;;;;;;;;;;;18.55;100.00;98497.91;5069229;28;19920;-40
2022/12/31 12:37:40;;;;;;;;;;;;;;;18.80;100.00;98497.78;5070223;28;19920;-41
2022/12/31 12:40:05;;;;;;;;;;;;;;;18.50;100.00;98495.63;5071744;28;19927;-40
2022/12/31 12:42:31;;;;;;;;;;;;;;;19.17;100.00;98489.81;5070666;28;19950;-41
2022/12/31 12:45:02;;;;;;;;;;;;;;;18.50;100.00;98500.03;5072979;28;19920;-41
2022/12/31 12:47:27;;;;;;;;;;;;;;;18.89;100.00;98501.50;5071475;28;20504;-41
2022/12/31 12:49:53;;;;;;;;;;;;;;;18.72;100.00;98499.28;5069179;28;19973;-40
2022/12/31 12:52:27;;;;;;;;;;;;;;;18.69;100.00;98500.34;5072843;28;19924;-41
2022/12/31 12:55:14;;;;;;;;;;;;;;;18.76;100.00;98506.75;5072597;28;19931;-41
2022/12/31 12:57:55;;;;;;;;;;;;;;;18.38;100.00;98512.16;5071304;28;20053;-41
2022/12/31 13:00:28;;;;;;;;;;;;;;;18.67;100.00;98502.22;5069362;28;19927;-41